Ammansville, Texas
Current Conditions -  °F | °C
As of 6:35 PM on Monday 24 Nov 2014 (Local Time) from K3T5 Reporting Station
Clear Clear  
Wind Chill: 13°   Ceiling: Unl
Heat Index: 13°   Visibility: 10mi
Dew Point:   Wind: 3mph
Humidity: 52%   Direction: 350°N
Pressure: 30.08"   Gusts: NA
Location:  29.8569°N, 96.9311°W
Report Text: K3T5 250035Z AUTO 35003KT 10SM CLR 13/03 A3008 RMK AO2 T01250029
Loading
Personal Weather Stations






























Interactive Weather Map New forecast layout! Learn more

10-Day Weather Forecast

Advertisements
Track Severe Weather on mobile